Time;durP1;ratioP1;P1;durP2;ratioP2;P2;SDS_P1;SDS_P2;PMS_P1;PMS_P2;Temp;Humidity;BMP_temperature;BMP_pressure;BME280_temperature;BME280_humidity;BME280_pressure;Samples;Min_cycle;Max_cycle;Signal;HPM_P1;HPM_P2
2023/06/08 00:02:00;;;;;;;6.80;3.20;;;;;;;13.74;90.91;95693.02;106592;1275;25459;-72
2023/06/08 00:04:33;;;;;;;6.10;2.70;;;;;;;13.70;90.84;95688.71;106585;1275;22514;-71
2023/06/08 00:07:08;;;;;;;6.00;3.50;;;;;;;13.64;90.27;95690.49;106697;1276;22513;-71
2023/06/08 00:09:37;;;;;;;7.90;3.50;;;;;;;13.64;90.74;95688.17;106840;1269;22530;-72
2023/06/08 00:12:06;;;;;;;13.50;3.60;;;;;;;13.72;91.15;95687.95;106968;1275;22544;-72
2023/06/08 00:14:35;;;;;;;7.50;3.10;;;;;;;13.76;91.38;95687.11;106680;1275;25374;-71
2023/06/08 00:17:04;;;;;;;4.50;3.40;;;;;;;13.76;91.04;95681.45;106598;1275;22513;-71
2023/06/08 00:19:36;;;;;;;3.80;3.50;;;;;;;13.79;91.09;95681.73;106634;1275;25334;-71
2023/06/08 00:22:07;;;;;;;6.60;3.30;;;;;;;13.82;91.31;95676.00;106604;1275;24244;-72
2023/06/08 00:24:35;;;;;;;5.10;3.60;;;;;;;13.84;91.54;95681.74;106609;1276;25264;-72
2023/06/08 00:27:05;;;;;;;9.70;3.60;;;;;;;13.88;91.97;95677.39;106611;1275;22524;-72
2023/06/08 00:29:34;;;;;;;4.60;3.10;;;;;;;13.89;91.52;95678.61;106602;1275;22517;-71
2023/06/08 00:32:04;;;;;;;3.80;3.00;;;;;;;13.88;91.01;95680.58;106971;1264;22532;-72
2023/06/08 00:34:36;;;;;;;8.10;3.30;;;;;;;13.80;90.80;95687.01;106972;1275;25214;-72
2023/06/08 00:37:04;;;;;;;4.80;3.00;;;;;;;13.74;91.25;95680.48;106968;1275;22517;-72
2023/06/08 00:39:32;;;;;;;6.00;3.00;;;;;;;13.73;91.93;95683.14;106953;1275;22746;-72
2023/06/08 00:42:03;;;;;;;5.20;3.50;;;;;;;13.72;91.62;95685.48;106746;1275;24423;-72
2023/06/08 00:44:31;;;;;;;4.70;3.30;;;;;;;13.77;92.49;95687.81;106573;1276;25223;-71
2023/06/08 00:46:59;;;;;;;4.90;3.70;;;;;;;13.81;92.23;95688.73;106609;1276;25213;-72
2023/06/08 00:49:31;;;;;;;8.60;3.70;;;;;;;13.89;92.77;95683.74;106562;1275;22521;-72
2023/06/08 00:52:01;;;;;;;5.80;3.70;;;;;;;14.01;93.11;95684.06;106598;1275;25392;-72
2023/06/08 00:54:30;;;;;;;4.20;3.10;;;;;;;14.08;92.08;95681.05;106660;1275;22537;-71
2023/06/08 00:57:03;;;;;;;4.20;3.20;;;;;;;14.04;91.51;95679.72;106727;1275;22766;-71
2023/06/08 00:59:33;;;;;;;4.00;3.60;;;;;;;14.06;92.01;95674.89;106764;1275;22548;-72
2023/06/08 01:02:04;;;;;;;5.10;3.20;;;;;;;14.14;92.59;95672.71;106978;1275;24843;-71
2023/06/08 01:04:35;;;;;;;6.40;3.70;;;;;;;14.20;91.94;95666.14;106559;1275;24198;-72
2023/06/08 01:07:05;;;;;;;;;;;;;;;14.15;91.36;95667.02;106609;1275;22520;-72
2023/06/08 01:09:39;;;;;;;10.00;3.50;;;;;;;14.13;91.83;95669.56;106721;1275;22750;-72
2023/06/08 01:12:27;;;;;;;5.20;3.20;;;;;;;14.13;91.37;95665.33;106894;1275;22527;-72
2023/06/08 01:14:58;;;;;;;3.60;3.30;;;;;;;14.03;90.75;95664.19;106604;1275;26949;-72
2023/06/08 01:17:40;;;;;;;5.70;3.60;;;;;;;13.99;90.86;95663.10;106551;1275;22632;-72
2023/06/08 01:20:36;;;;;;;5.50;2.90;;;;;;;13.95;90.72;95662.15;106702;1275;24246;-72
2023/06/08 01:23:20;;;;;;;4.10;2.90;;;;;;;13.93;90.93;95657.98;106930;1275;26566;-72
2023/06/08 01:25:52;;;;;;;3.10;2.80;;;;;;;13.93;90.74;95657.25;106581;1275;22525;-72
2023/06/08 01:28:20;;;;;;;6.50;3.40;;;;;;;13.87;90.34;95655.51;106647;1275;22524;-72
2023/06/08 01:30:49;;;;;;;4.00;3.10;;;;;;;13.79;90.07;95654.31;106751;1275;25214;-71
2023/06/08 01:33:21;;;;;;;5.00;2.90;;;;;;;13.73;90.48;95650.61;106652;1275;22786;-71
2023/06/08 01:36:06;;;;;;;6.90;3.00;;;;;;;13.76;90.89;95653.70;106714;1275;25347;-72
2023/06/08 01:38:50;;;;;;;7.20;3.40;;;;;;;13.71;90.42;95651.21;106603;1275;22755;-72
2023/06/08 01:41:23;;;;;;;3.20;2.90;;;;;;;13.69;91.02;95645.61;106572;1275;22516;-72
2023/06/08 01:43:53;;;;;;;5.10;3.20;;;;;;;13.75;91.52;95645.25;106983;1275;22527;-72
2023/06/08 01:46:22;;;;;;;6.00;3.50;;;;;;;13.82;91.22;95642.92;106875;1272;22524;-71
2023/06/08 01:48:53;;;;;;;5.30;3.40;;;;;;;13.80;91.11;95641.73;106787;1275;25395;-72
2023/06/08 01:51:23;;;;;;;6.00;2.80;;;;;;;13.85;91.41;95647.08;106594;1275;24206;-72
2023/06/08 01:54:02;;;;;;;4.70;3.00;;;;;;;13.81;90.35;95644.90;106589;1275;22793;-72
2023/06/08 01:56:32;;;;;;;3.80;3.30;;;;;;;13.68;89.97;95647.23;106612;1275;22758;-72
2023/06/08 01:59:01;;;;;;;7.60;3.20;;;;;;;13.60;90.08;95648.20;106546;1275;22527;-72
2023/06/08 02:01:29;;;;;;;5.60;2.90;;;;;;;13.55;90.21;95645.66;106597;1275;22511;-71
2023/06/08 02:03:57;;;;;;;4.90;2.80;;;;;;;13.55;90.63;95647.80;106613;1275;22635;-72
2023/06/08 02:06:25;;;;;;;7.40;3.30;;;;;;;13.50;90.52;95646.02;106872;1275;22511;-72
2023/06/08 02:08:54;;;;;;;4.20;3.30;;;;;;;13.51;90.97;95645.09;106598;1275;22646;-72
2023/06/08 02:11:23;;;;;;;4.60;3.00;;;;;;;13.51;90.74;95647.54;106589;1275;22528;-72
2023/06/08 02:13:52;;;;;;;7.00;3.30;;;;;;;13.37;89.81;95649.72;106910;1275;22522;-73
2023/06/08 02:16:20;;;;;;;7.30;3.50;;;;;;;13.30;90.77;95646.41;106796;1275;22653;-73
2023/06/08 02:18:51;;;;;;;5.20;3.50;;;;;;;13.21;90.73;95648.39;106795;1275;24204;-73
2023/06/08 02:21:19;;;;;;;7.50;3.50;;;;;;;13.14;90.91;95653.52;106635;1275;22533;-72
2023/06/08 02:23:48;;;;;;;5.20;3.50;;;;;;;13.06;90.60;95657.09;106668;1275;22524;-73
2023/06/08 02:26:16;;;;;;;4.50;3.40;;;;;;;12.96;91.34;95658.96;106740;1275;22643;-73
2023/06/08 02:28:44;;;;;;;4.70;3.60;;;;;;;12.91;91.92;95659.26;106619;1275;22520;-73
2023/06/08 02:31:12;;;;;;;3.50;3.20;;;;;;;12.86;92.05;95660.30;106759;1275;22567;-73
2023/06/08 02:33:42;;;;;;;5.40;3.00;;;;;;;12.77;91.74;95664.23;106824;1275;24202;-73
2023/06/08 02:36:10;;;;;;;8.00;3.60;;;;;;;12.71;92.34;95667.92;106506;1275;22637;-73
2023/06/08 02:38:38;;;;;;;5.00;3.60;;;;;;;12.68;92.11;95672.21;106636;1275;22514;-72
2023/06/08 02:41:08;;;;;;;5.40;3.40;;;;;;;12.66;92.47;95670.50;106649;1275;22573;-73
2023/06/08 02:43:39;;;;;;;4.40;3.70;;;;;;;12.63;92.15;95673.77;106592;1275;25380;-73
2023/06/08 02:46:08;;;;;;;6.10;3.70;;;;;;;12.65;92.36;95675.66;106623;1275;25400;-73
2023/06/08 02:48:36;;;;;;;6.30;3.70;;;;;;;12.63;92.14;95679.06;106636;1275;25779;-72
2023/06/08 02:51:05;;;;;;;6.60;3.60;;;;;;;12.66;92.47;95683.23;106565;1275;22528;-73
2023/06/08 02:53:33;;;;;;;5.80;3.30;;;;;;;12.70;92.46;95679.77;106644;1253;22631;-73
2023/06/08 02:56:02;;;;;;;9.80;4.10;;;;;;;12.73;92.42;95681.64;106735;1275;22658;-72
2023/06/08 02:58:31;;;;;;;5.40;3.50;;;;;;;12.72;91.99;95683.77;107057;1275;22721;-72
2023/06/08 03:01:00;;;;;;;4.30;3.20;;;;;;;12.77;92.52;95683.99;106785;1275;22647;-73
2023/06/08 03:04:04;;;;;;;5.70;3.00;;;;;;;12.75;92.69;95686.87;106928;1275;22530;-72
2023/06/08 03:06:37;;;;;;;;;;;;;;;12.79;93.19;95686.25;107008;1275;22501;-72
2023/06/08 03:09:08;;;;;;;3.30;3.00;;;;;;;12.88;93.59;95681.95;106728;1275;25452;-72
2023/06/08 03:11:38;;;;;;;3.70;2.70;;;;;;;13.01;93.48;95688.13;106645;1275;24238;-72
2023/06/08 03:14:06;;;;;;;8.30;3.10;;;;;;;13.04;92.42;95686.11;106661;1263;22621;-73
2023/06/08 03:16:35;;;;;;;12.50;4.50;;;;;;;13.04;92.10;95686.83;106586;1275;25485;-73
2023/06/08 03:19:04;;;;;;;7.10;4.00;;;;;;;13.09;92.39;95688.28;106607;1269;22535;-72
2023/06/08 03:21:32;;;;;;;8.70;3.60;;;;;;;13.12;92.51;95689.08;106178;1275;611383;-72
2023/06/08 03:24:01;;;;;;;4.00;3.50;;;;;;;13.20;92.51;95692.22;106581;1275;22527;-72
2023/06/08 03:26:30;;;;;;;7.50;3.10;;;;;;;13.26;92.58;95695.06;106796;1266;25343;-72
2023/06/08 03:28:59;;;;;;;4.40;3.50;;;;;;;13.28;92.25;95697.88;106670;1275;22517;-72
2023/06/08 03:31:29;;;;;;;7.30;3.70;;;;;;;13.32;92.28;95699.33;106691;1275;25383;-72
2023/06/08 03:33:58;;;;;;;4.70;3.70;;;;;;;13.37;92.59;95697.95;106587;1275;22536;-72
2023/06/08 03:36:33;;;;;;;6.40;4.10;;;;;;;13.52;93.25;95700.38;106598;1275;25332;-72
2023/06/08 03:39:06;;;;;;;4.70;3.40;;;;;;;13.66;93.87;95698.21;106577;1275;24255;-72
2023/06/08 03:41:36;;;;;;;4.00;3.40;;;;;;;13.81;93.74;95701.84;106651;1275;25403;-72
2023/06/08 03:44:04;;;;;;;8.30;3.20;;;;;;;13.88;92.94;95702.86;106640;1275;22527;-73
2023/06/08 03:46:36;;;;;;;5.10;3.70;;;;;;;13.91;92.96;95701.55;106586;1275;25318;-73
2023/06/08 03:49:05;;;;;;;3.80;3.40;;;;;;;14.00;93.17;95699.83;106592;1275;25231;-73
2023/06/08 03:51:33;;;;;;;6.90;3.20;;;;;;;14.17;93.49;95697.55;106574;1275;22517;-72
2023/06/08 03:54:03;;;;;;;8.10;3.10;;;;;;;14.34;93.70;95697.73;106618;1275;22541;-73
2023/06/08 03:56:31;;;;;;;4.10;3.10;;;;;;;14.50;92.79;95697.59;106648;1275;22660;-72
2023/06/08 03:59:01;;;;;;;6.70;3.50;;;;;;;14.57;91.59;95697.91;106647;1275;22520;-73
2023/06/08 04:01:30;;;;;;;4.60;3.10;;;;;;;14.69;92.13;95696.63;106607;1275;24242;-73
2023/06/08 04:03:59;;;;;;;8.40;4.00;;;;;;;14.78;91.37;95694.58;106670;1275;24255;-73
2023/06/08 04:06:33;;;;;;;5.80;4.10;;;;;;;14.91;91.75;95694.29;106570;1275;24001;-69
2023/06/08 04:09:03;;;;;;;7.30;4.00;;;;;;;15.10;92.40;95694.17;106562;1275;24199;-75
2023/06/08 04:11:34;;;;;;;10.90;3.90;;;;;;;15.30;92.09;95695.63;106584;1276;22539;-72
2023/06/08 04:14:02;;;;;;;6.90;3.60;;;;;;;15.41;90.38;95688.32;106587;1273;25337;-73
2023/06/08 04:16:32;;;;;;;8.80;4.60;;;;;;;15.41;89.63;95690.42;106647;1275;22516;-73
2023/06/08 04:19:00;;;;;;;6.00;3.80;;;;;;;15.37;88.39;95692.54;106550;1275;24237;-73
2023/06/08 04:21:29;;;;;;;5.20;4.20;;;;;;;15.31;88.85;95687.61;106585;1275;22541;-72
2023/06/08 04:24:05;;;;;;;4.40;3.90;;;;;;;15.34;89.38;95686.77;106979;1275;22969;-73
2023/06/08 04:26:35;;;;;;;5.90;4.30;;;;;;;15.34;89.38;95686.40;106739;1276;22515;-73
2023/06/08 04:29:04;;;;;;;6.00;4.40;;;;;;;15.37;89.89;95692.69;106577;1275;22541;-73
2023/06/08 04:31:35;;;;;;;7.90;4.50;;;;;;;15.40;89.82;95689.77;106657;1275;25425;-73
2023/06/08 04:34:03;;;;;;;5.70;4.20;;;;;;;15.43;89.72;95691.27;106656;1275;24267;-72
2023/06/08 04:36:32;;;;;;;9.90;4.50;;;;;;;15.41;89.41;95697.69;106609;1275;22600;-73
2023/06/08 04:39:01;;;;;;;5.30;4.80;;;;;;;15.42;89.54;95697.85;106561;1275;25393;-73
2023/06/08 04:41:31;;;;;;;6.10;4.60;;;;;;;15.43;89.51;95697.46;106549;1275;22514;-73
2023/06/08 04:44:01;;;;;;;9.40;4.80;;;;;;;15.48;90.04;95697.96;106604;1260;26628;-72
2023/06/08 04:46:37;;;;;;;5.20;4.40;;;;;;;15.55;89.99;95698.41;106614;1275;22809;-73
2023/06/08 04:49:06;;;;;;;5.30;4.40;;;;;;;15.61;89.82;95698.41;106622;1275;22642;-72
2023/06/08 04:51:39;;;;;;;6.20;4.60;;;;;;;15.66;89.88;95698.20;106608;1275;25385;-72
2023/06/08 04:54:13;;;;;;;5.90;4.40;;;;;;;15.74;89.90;95699.20;106590;1275;24862;-71
2023/06/08 04:56:41;;;;;;;8.10;4.30;;;;;;;15.80;89.65;95696.13;106617;1275;22629;-73
2023/06/08 04:59:10;;;;;;;5.70;4.40;;;;;;;15.87;89.63;95697.81;106474;1275;22514;-76
2023/06/08 05:01:38;;;;;;;8.00;4.10;;;;;;;15.97;89.99;95698.70;106530;1275;24363;-81
2023/06/08 05:04:07;;;;;;;4.70;3.80;;;;;;;16.07;90.08;95703.45;106431;1275;22517;-75
2023/06/08 05:06:37;;;;;;;6.00;4.10;;;;;;;16.15;89.27;95702.44;110010;1275;25411;-70
2023/06/08 05:09:05;;;;;;;6.40;3.90;;;;;;;16.23;89.13;95704.25;106520;1275;25319;-69
2023/06/08 05:11:33;;;;;;;10.70;4.40;;;;;;;16.33;89.37;95704.22;106558;1275;25214;-72
2023/06/08 05:14:01;;;;;;;5.50;4.10;;;;;;;16.47;89.61;95693.36;106786;1275;22513;-69
2023/06/08 05:16:30;;;;;;;6.20;3.80;;;;;;;16.61;89.22;95697.73;106608;1275;22516;-74
2023/06/08 05:18:58;;;;;;;5.60;3.50;;;;;;;16.73;88.84;95695.34;106746;1275;22563;-76
2023/06/08 05:21:26;;;;;;;10.60;4.00;;;;;;;16.87;88.73;95698.16;106476;1275;23001;-70
2023/06/08 05:23:55;;;;;;;6.70;4.20;;;;;;;17.04;88.56;95696.55;106560;1275;25372;-74
2023/06/08 05:26:23;;;;;;;5.90;3.50;;;;;;;17.22;88.30;95696.85;106565;1275;25252;-70
2023/06/08 05:28:51;;;;;;;5.10;4.00;;;;;;;17.36;86.76;95698.05;106815;1275;22995;-69
2023/06/08 05:31:19;;;;;;;4.60;3.70;;;;;;;17.43;86.09;95699.49;106540;1275;22518;-74
2023/06/08 05:33:48;;;;;;;4.70;3.90;;;;;;;17.57;85.74;95698.71;106627;1275;25278;-68
2023/06/08 05:36:16;;;;;;;8.70;4.20;;;;;;;17.66;85.80;95699.55;106661;1272;25262;-71
2023/06/08 05:38:44;;;;;;;10.10;5.30;;;;;;;17.72;85.27;95698.58;106530;1270;25259;-72
2023/06/08 05:41:13;;;;;;;9.60;4.90;;;;;;;17.83;85.57;95698.45;106690;1267;24017;-69
2023/06/08 05:43:42;;;;;;;10.40;4.50;;;;;;;17.93;85.53;95698.55;106647;1269;22543;-72
2023/06/08 05:46:10;;;;;;;11.70;4.80;;;;;;;18.02;84.50;95699.36;106549;1272;25456;-71
2023/06/08 05:48:39;;;;;;;7.00;4.70;;;;;;;18.09;84.80;95696.77;106685;1270;22516;-69
2023/06/08 05:51:08;;;;;;;6.60;4.90;;;;;;;18.17;84.90;95701.15;106759;1269;24219;-72
2023/06/08 05:53:37;;;;;;;7.90;4.70;;;;;;;18.22;84.41;95696.14;106953;1267;24057;-71
2023/06/08 05:56:06;;;;;;;7.90;4.30;;;;;;;18.22;84.03;95695.05;106500;1272;22532;-69
2023/06/08 05:58:34;;;;;;;8.50;5.30;;;;;;;18.19;83.70;95693.27;106935;1275;22635;-72
2023/06/08 06:01:19;;;;;;;10.20;4.80;;;;;;;18.19;84.30;95695.75;106464;1275;24360;-76
2023/06/08 06:03:47;;;;;;;15.90;5.40;;;;;;;18.24;84.48;95692.11;106657;1272;24353;-78
2023/06/08 06:06:16;;;;;;;7.10;4.80;;;;;;;18.30;84.18;95694.48;106737;1275;25230;-77
2023/06/08 06:08:45;;;;;;;16.80;5.50;;;;;;;18.30;84.07;95694.70;106621;1275;25494;-69
2023/06/08 06:11:13;;;;;;;12.20;5.30;;;;;;;18.29;84.04;95691.69;106675;1267;25936;-79
2023/06/08 06:13:41;;;;;;;6.70;4.90;;;;;;;18.28;84.35;95688.53;106679;1275;25821;-82
2023/06/08 06:16:10;;;;;;;10.40;4.80;;;;;;;18.26;84.18;95687.42;106658;1273;26500;-78
2023/06/08 06:18:46;;;;;;;7.60;5.00;;;;;;;18.23;84.28;95689.84;106632;1272;24063;-71
2023/06/08 06:21:15;;;;;;;7.50;4.70;;;;;;;18.25;84.20;95688.13;106668;1263;22514;-73
2023/06/08 06:23:46;;;;;;;8.90;5.00;;;;;;;18.35;84.51;95684.27;106683;1270;22604;-73
2023/06/08 06:26:15;;;;;;;9.30;5.40;;;;;;;18.42;84.31;95688.27;106675;1267;22593;-75
2023/06/08 06:28:44;;;;;;;8.10;5.30;;;;;;;18.45;84.09;95690.75;106752;1267;25328;-73
2023/06/08 06:31:12;;;;;;;11.90;4.80;;;;;;;18.49;83.47;95687.91;106596;1261;24473;-74
2023/06/08 06:33:40;;;;;;;6.40;4.50;;;;;;;18.61;83.48;95686.79;106767;1272;23048;-72
2023/06/08 06:36:08;;;;;;;5.30;3.90;;;;;;;18.77;82.70;95684.21;106761;1270;22515;-68
2023/06/08 06:38:37;;;;;;;5.70;4.00;;;;;;;18.90;79.75;95678.78;106658;1273;22703;-72
2023/06/08 06:41:05;;;;;;;9.50;4.00;;;;;;;18.95;79.96;95682.61;106511;1275;26652;-70
2023/06/08 06:43:33;;;;;;;11.30;4.10;;;;;;;19.10;79.36;95683.14;106585;1275;22533;-77
2023/06/08 06:46:07;;;;;;;9.70;3.80;;;;;;;19.25;78.09;95682.18;106991;1275;24180;-75
2023/06/08 06:48:35;;;;;;;6.70;4.30;;;;;;;19.38;77.53;95678.85;107188;1275;25383;-78
2023/06/08 06:51:04;;;;;;;5.40;3.90;;;;;;;19.49;76.01;95676.65;106697;1275;22509;-78
2023/06/08 06:53:33;;;;;;;5.80;4.20;;;;;;;19.52;74.35;95678.65;106887;1275;25457;-71
2023/06/08 06:56:01;;;;;;;6.10;4.30;;;;;;;19.61;75.02;95676.58;106694;1254;22542;-80
2023/06/08 06:58:30;;;;;;;4.50;4.00;;;;;;;19.71;75.14;95675.88;106825;1275;22543;-77
2023/06/08 07:01:01;;;;;;;6.70;3.90;;;;;;;19.69;74.58;95675.80;106765;1274;22526;-79
2023/06/08 07:03:30;;;;;;;4.90;4.10;;;;;;;19.75;75.17;95678.71;106520;1266;23906;-81
2023/06/08 07:06:02;;;;;;;7.30;4.20;;;;;;;19.84;75.77;95675.88;106678;1275;22524;-78
2023/06/08 07:08:31;;;;;;;5.10;3.90;;;;;;;20.01;75.55;95679.45;106997;1263;22506;-81
2023/06/08 07:11:01;;;;;;;5.10;4.10;;;;;;;20.20;74.84;95677.86;106766;1275;22686;-83
2023/06/08 07:13:29;;;;;;;4.50;4.00;;;;;;;20.32;73.56;95674.16;106793;1275;25465;-78
2023/06/08 07:15:58;;;;;;;6.80;4.30;;;;;;;20.41;73.85;95665.99;107496;1267;22584;-81
2023/06/08 07:18:26;;;;;;;5.00;4.10;;;;;;;20.49;71.29;95666.96;106637;1272;22511;-80
2023/06/08 07:20:55;;;;;;;6.90;3.80;;;;;;;20.55;72.12;95662.70;106587;1272;22528;-73
2023/06/08 07:23:24;;;;;;;4.70;3.60;;;;;;;20.68;73.11;95665.20;106800;1270;22514;-76
2023/06/08 07:26:12;;;;;;;4.80;4.20;;;;;;;20.88;72.97;95664.08;106673;1270;22540;-77
2023/06/08 07:28:58;;;;;;;4.70;4.00;;;;;;;21.02;72.51;95658.06;106737;1272;25337;-75
2023/06/08 07:31:27;;;;;;;6.70;4.40;;;;;;;21.06;70.11;95659.24;106684;1267;22544;-76
2023/06/08 07:33:59;;;;;;;4.60;4.00;;;;;;;20.97;70.25;95659.64;106879;1267;24049;-78
2023/06/08 07:36:28;;;;;;;6.60;4.10;;;;;;;20.81;70.40;95659.48;106457;1272;24266;-74
2023/06/08 07:38:57;;;;;;;6.10;4.20;;;;;;;20.69;70.92;95663.55;106706;1267;22528;-77
2023/06/08 07:41:26;;;;;;;7.20;4.40;;;;;;;20.49;71.43;95661.44;106626;1267;26612;-76
2023/06/08 07:43:55;;;;;;;7.50;4.60;;;;;;;20.26;71.41;95661.65;106609;1272;22521;-78
2023/06/08 07:46:24;;;;;;;7.10;4.50;;;;;;;20.10;72.39;95663.83;106505;1270;22656;-76
2023/06/08 07:48:53;;;;;;;8.70;4.80;;;;;;;20.15;73.13;95657.65;108382;1267;24243;-76
2023/06/08 07:51:21;;;;;;;6.90;4.80;;;;;;;20.23;73.27;95655.39;108524;1267;24565;-82
2023/06/08 07:53:49;;;;;;;5.10;4.20;;;;;;;20.36;71.57;95653.06;106526;1270;22518;-74
2023/06/08 07:56:18;;;;;;;6.30;3.90;;;;;;;20.50;71.18;95656.58;106809;1272;25468;-75
2023/06/08 07:58:46;;;;;;;5.00;4.00;;;;;;;20.72;71.65;95651.93;106463;1267;24254;-79
2023/06/08 08:01:16;;;;;;;6.10;3.60;;;;;;;21.03;71.76;95649.77;106623;1272;22501;-80
2023/06/08 08:03:44;;;;;;;4.40;3.90;;;;;;;21.36;70.79;95648.16;106678;1270;24554;-80
2023/06/08 08:06:14;;;;;;;6.40;3.90;;;;;;;21.59;68.18;95647.17;106744;1272;24269;-73
2023/06/08 08:08:43;;;;;;;6.10;3.60;;;;;;;21.84;67.60;95642.40;106676;1269;22532;-80
2023/06/08 08:11:11;;;;;;;4.30;3.90;;;;;;;22.10;68.39;95637.90;106609;1275;22521;-77
2023/06/08 08:13:40;;;;;;;5.10;4.00;;;;;;;22.26;66.07;95638.17;106585;1275;22517;-79
2023/06/08 08:16:08;;;;;;;6.10;4.10;;;;;;;22.28;64.63;95631.22;106505;1275;22629;-78
2023/06/08 08:18:36;;;;;;;3.90;3.50;;;;;;;22.35;66.27;95632.77;106552;1275;25271;-77
2023/06/08 08:21:05;;;;;;;4.30;3.80;;;;;;;22.49;64.54;95632.59;106383;1263;22517;-76
2023/06/08 08:23:33;;;;;;;4.70;4.20;;;;;;;22.57;63.98;95628.80;106645;1275;24358;-77
2023/06/08 08:26:02;;;;;;;5.10;3.90;;;;;;;22.69;64.35;95631.05;106675;1275;24253;-77
2023/06/08 08:28:30;;;;;;;7.50;4.00;;;;;;;22.73;61.99;95632.10;106608;1275;22542;-79
2023/06/08 08:30:59;;;;;;;9.20;4.40;;;;;;;22.77;61.94;95630.35;106513;1275;22523;-78
2023/06/08 08:33:28;;;;;;;7.20;4.20;;;;;;;22.73;62.07;95629.05;106648;1275;23009;-77
2023/06/08 08:35:57;;;;;;;5.00;3.40;;;;;;;22.80;62.79;95634.47;106579;1275;24387;-76
2023/06/08 08:38:26;;;;;;;4.10;3.70;;;;;;;22.88;62.48;95633.37;106611;1267;22509;-73
2023/06/08 08:41:05;;;;;;;5.50;3.70;;;;;;;23.03;61.90;95638.16;106732;1263;24457;-82
2023/06/08 08:43:57;;;;;;;6.90;4.20;;;;;;;23.09;61.16;95636.64;106913;1275;23471;-75
2023/06/08 08:46:28;;;;;;;6.40;3.80;;;;;;;23.20;60.48;95635.58;107854;1270;22533;-73
2023/06/08 08:48:58;;;;;;;7.60;4.30;;;;;;;23.24;59.79;95631.17;106565;1275;25214;-70
2023/06/08 08:51:28;;;;;;;7.30;4.00;;;;;;;23.24;60.43;95634.98;108003;1275;22528;-77
2023/06/08 08:53:57;;;;;;;5.40;4.10;;;;;;;23.34;61.17;95633.73;106749;1275;23558;-75
2023/06/08 08:56:25;;;;;;;5.10;3.80;;;;;;;23.45;61.26;95632.59;106476;1275;22577;-75
2023/06/08 08:58:54;;;;;;;4.60;4.20;;;;;;;23.66;60.98;95629.70;106687;1275;22516;-82
2023/06/08 09:01:25;;;;;;;5.70;4.20;;;;;;;23.74;60.44;95624.90;106627;1275;22612;-71
2023/06/08 09:03:53;;;;;;;8.90;3.80;;;;;;;23.87;60.67;95623.25;106837;1275;22517;-71
2023/06/08 09:06:22;;;;;;;6.80;4.20;;;;;;;24.03;60.60;95623.20;106646;1251;25491;-74
2023/06/08 09:08:50;;;;;;;7.00;3.90;;;;;;;24.13;59.20;95620.13;106882;1275;25797;-74
2023/06/08 09:11:19;;;;;;;4.40;3.90;;;;;;;24.31;59.59;95620.33;106823;1275;22521;-75
2023/06/08 09:13:47;;;;;;;7.30;3.80;;;;;;;24.43;59.20;95622.84;106784;1275;25485;-75
2023/06/08 09:16:21;;;;;;;5.70;3.90;;;;;;;24.49;57.91;95621.30;106651;1275;24189;-72
2023/06/08 09:19:05;;;;;;;5.40;3.70;;;;;;;24.54;57.50;95618.05;106791;1275;22519;-74
2023/06/08 09:21:33;;;;;;;3.80;3.40;;;;;;;24.56;56.90;95611.98;106754;1275;22775;-76
2023/06/08 09:24:06;;;;;;;7.70;3.70;;;;;;;24.63;56.34;95610.41;106771;1275;25374;-75
2023/06/08 09:26:45;;;;;;;5.60;3.80;;;;;;;24.96;57.60;95610.51;106861;1275;22520;-73
2023/06/08 09:29:40;;;;;;;4.70;4.00;;;;;;;25.27;58.01;95600.93;106654;1275;22593;-74
2023/06/08 09:32:14;;;;;;;6.60;3.40;;;;;;;25.39;56.66;95603.80;106873;1275;25423;-75
2023/06/08 09:34:50;;;;;;;5.20;4.10;;;;;;;25.40;55.07;95601.16;106635;1263;22593;-75
2023/06/08 09:37:19;;;;;;;6.40;3.80;;;;;;;25.31;54.49;95596.48;106726;1275;22521;-73
2023/06/08 09:39:47;;;;;;;4.20;3.80;;;;;;;25.08;56.22;95598.41;106772;1275;23155;-75
2023/06/08 09:42:15;;;;;;;5.00;3.70;;;;;;;24.85;56.94;95598.87;106853;1275;25296;-75
2023/06/08 09:44:44;;;;;;;5.10;3.70;;;;;;;24.41;56.09;95601.91;106711;1275;22727;-75
2023/06/08 09:47:21;;;;;;;6.50;3.70;;;;;;;23.90;57.21;95607.36;106709;1275;25255;-75
2023/06/08 09:49:51;;;;;;;4.50;3.80;;;;;;;23.60;58.64;95605.70;106730;1275;23884;-75
2023/06/08 09:52:20;;;;;;;5.10;3.80;;;;;;;23.35;58.89;95603.50;106807;1275;24231;-74
2023/06/08 09:54:51;;;;;;;5.90;4.00;;;;;;;23.01;58.84;95609.04;106764;1275;24284;-75
2023/06/08 09:57:20;;;;;;;5.70;3.70;;;;;;;22.76;60.06;95607.85;106678;1275;25259;-75
2023/06/08 10:00:26;;;;;;;6.90;4.30;;;;;;;22.55;61.10;95602.61;106766;1275;25369;-75
2023/06/08 10:03:32;;;;;;;6.00;3.90;;;;;;;22.25;61.70;95598.27;106721;1275;25610;-75
2023/06/08 10:06:03;;;;;;;6.30;4.10;;;;;;;22.01;63.00;95595.67;106703;1275;25501;-75
2023/06/08 10:08:33;;;;;;;4.10;3.70;;;;;;;21.89;64.38;95597.88;106736;1275;24233;-75
2023/06/08 10:11:03;;;;;;;5.30;4.60;;;;;;;21.76;64.41;95589.16;106702;1275;22529;-75
2023/06/08 10:13:31;;;;;;;5.40;4.40;;;;;;;21.61;64.45;95589.20;107004;1275;24242;-75
2023/06/08 10:15:59;;;;;;;8.90;4.40;;;;;;;21.55;65.68;95590.86;106694;1275;25390;-74
2023/06/08 10:18:29;;;;;;;5.40;4.60;;;;;;;21.54;66.20;95592.37;106773;1275;24218;-74
2023/06/08 10:21:00;;;;;;;7.40;4.30;;;;;;;21.48;66.10;95589.30;106683;1263;22572;-75
2023/06/08 10:23:30;;;;;;;5.90;4.20;;;;;;;21.31;66.04;95585.83;106744;1275;25579;-76
2023/06/08 10:26:00;;;;;;;7.00;5.30;;;;;;;21.23;67.29;95578.80;106747;1275;24490;-75
2023/06/08 10:28:28;;;;;;;6.20;5.40;;;;;;;21.14;68.11;95574.20;107060;1275;24252;-76
2023/06/08 10:30:57;;;;;;;6.40;4.50;;;;;;;21.02;68.23;95573.30;106888;1275;22525;-76
2023/06/08 10:33:27;;;;;;;7.90;5.00;;;;;;;20.96;69.23;95579.53;106742;1275;22517;-76
2023/06/08 10:36:13;;;;;;;8.00;4.70;;;;;;;20.94;69.85;95577.17;106666;1275;25408;-75
2023/06/08 10:39:10;;;;;;;18.50;4.80;;;;;;;20.87;70.94;95578.64;106742;1275;22514;-75
2023/06/08 10:42:00;;;;;;;5.60;4.50;;;;;;;20.82;71.69;95580.95;106844;1275;24342;-75
2023/06/08 10:44:35;;;;;;;7.60;3.90;;;;;;;20.81;71.58;95582.76;106778;1275;22528;-75
2023/06/08 10:47:08;;;;;;;4.90;4.30;;;;;;;20.77;71.92;95584.95;106793;1275;22536;-75
2023/06/08 10:49:39;;;;;;;5.80;4.20;;;;;;;20.71;72.55;95581.54;106725;1275;25309;-76
2023/06/08 10:52:10;;;;;;;6.80;4.30;;;;;;;20.67;72.62;95582.32;106759;1275;25235;-76
2023/06/08 10:54:58;;;;;;;7.40;4.20;;;;;;;20.63;73.06;95586.48;107007;1275;23834;-76
2023/06/08 10:57:44;;;;;;;8.00;4.30;;;;;;;20.61;74.18;95592.00;107041;1275;22522;-76
2023/06/08 11:00:33;;;;;;;4.90;4.10;;;;;;;20.57;74.69;95592.02;106861;1263;22517;-76
2023/06/08 11:03:04;;;;;;;6.40;4.20;;;;;;;20.49;75.21;95584.95;106719;1275;22714;-76
2023/06/08 11:05:34;;;;;;;6.90;4.50;;;;;;;20.48;75.16;95581.98;106686;1275;25589;-76
2023/06/08 11:08:06;;;;;;;7.70;4.70;;;;;;;20.47;75.15;95586.88;106796;1275;25487;-75
2023/06/08 11:10:36;;;;;;;5.90;4.10;;;;;;;20.39;75.43;95585.90;106711;1275;23015;-76
2023/06/08 11:13:10;;;;;;;5.80;4.60;;;;;;;20.29;76.61;95589.66;106717;1275;22528;-75
2023/06/08 11:15:41;;;;;;;6.20;5.10;;;;;;;20.24;77.84;95587.83;106719;1275;25565;-75
2023/06/08 11:18:10;;;;;;;6.60;4.20;;;;;;;20.20;77.99;95586.29;106953;1260;24202;-74
2023/06/08 11:20:41;;;;;;;5.40;4.10;;;;;;;20.12;77.49;95581.38;106710;1275;22510;-74
2023/06/08 11:23:12;;;;;;;4.50;4.10;;;;;;;19.99;77.19;95575.85;106806;1275;25303;-75
2023/06/08 11:25:44;;;;;;;12.90;4.30;;;;;;;19.80;78.82;95574.21;106657;1275;24315;-75
2023/06/08 11:28:13;;;;;;;8.30;3.70;;;;;;;19.63;79.08;95576.55;106745;1275;23991;-75
2023/06/08 11:30:41;;;;;;;5.10;4.00;;;;;;;19.46;79.07;95575.81;106708;1275;25337;-76
2023/06/08 11:33:14;;;;;;;7.80;4.90;;;;;;;19.35;79.38;95572.87;106603;1275;23225;-75
2023/06/08 11:35:43;;;;;;;5.60;4.10;;;;;;;19.28;79.32;95568.96;106779;1275;24120;-75
2023/06/08 11:38:12;;;;;;;9.60;4.70;;;;;;;19.22;80.68;95571.07;106788;1275;22639;-75
2023/06/08 11:40:41;;;;;;;9.40;5.00;;;;;;;19.20;81.64;95570.45;106725;1275;25450;-75
2023/06/08 11:43:11;;;;;;;6.70;4.20;;;;;;;19.18;80.85;95568.80;106588;1275;25299;-75